Time;durP1;ratioP1;P1;durP2;ratioP2;P2;SDS_P1;SDS_P2;PMS_P1;PMS_P2;Temp;Humidity;BMP_temperature;BMP_pressure;BME280_temperature;BME280_humidity;BME280_pressure;Samples;Min_cycle;Max_cycle;Signal;HPM_P1;HPM_P2
2022/12/19 00:00:36;;;;;;;76.03;42.57;;;3.30;99.90;;;3.25;100.00;101478.97;5054030;28;20526;-74
2022/12/19 00:03:04;;;;;;;77.67;42.97;;;3.30;99.90;;;3.27;100.00;101457.25;5054248;28;20090;-73
2022/12/19 00:05:38;;;;;;;87.67;43.07;;;3.30;99.90;;;3.20;100.00;101457.00;5054059;28;20040;-73
2022/12/19 00:08:13;;;;;;;75.40;41.30;;;3.30;99.90;;;3.30;100.00;101498.28;5052712;28;20140;-73
2022/12/19 00:10:53;;;;;;;80.00;42.17;;;3.30;99.90;;;3.35;100.00;101462.72;5069632;28;20494;-74
2022/12/19 00:13:22;;;;;;;74.00;41.03;;;3.30;99.90;;;3.40;100.00;101441.16;5053889;28;20174;-73
2022/12/19 00:15:50;;;;;;;74.27;42.40;;;3.50;99.90;;;3.49;100.00;101456.25;5053823;28;20375;-74
2022/12/19 00:18:19;;;;;;;73.17;41.40;;;3.50;99.90;;;3.21;100.00;101412.63;5069470;28;20075;-73
2022/12/19 00:20:57;;;;;;;71.00;41.27;;;3.40;99.90;;;2.92;100.00;101383.72;5053809;28;20076;-73
2022/12/19 00:23:27;;;;;;;85.20;41.43;;;3.40;99.90;;;3.35;100.00;101453.16;5053664;28;20041;-73
2022/12/19 00:25:56;;;;;;;72.30;41.28;;;3.40;99.90;;;3.44;100.00;101439.53;5054291;28;20073;-73
2022/12/19 00:28:26;;;;;;;71.17;39.90;;;3.50;99.90;;;3.50;100.00;101439.75;5053895;28;20044;-73
2022/12/19 00:30:54;;;;;;;77.33;41.60;;;3.50;99.90;;;3.49;100.00;101424.88;5053591;28;20044;-73
2022/12/19 00:33:23;;;;;;;72.47;41.23;;;3.50;99.90;;;3.46;100.00;101419.56;5069104;28;20048;-73
2022/12/19 00:35:59;;;;;;;72.90;40.97;;;3.60;99.90;;;3.47;100.00;101424.84;5069185;28;20033;-73
2022/12/19 00:38:28;;;;;;;70.07;40.07;;;3.50;99.90;;;3.61;100.00;101422.66;5069120;28;20045;-73
2022/12/19 00:41:07;;;;;;;72.85;41.38;;;3.60;99.90;;;3.55;100.00;101404.16;5069116;28;20053;-73
2022/12/19 00:43:36;;;;;;;72.67;41.47;;;3.70;99.90;;;3.64;100.00;101415.78;5053334;28;20033;-73
2022/12/19 00:46:08;;;;;;;74.73;42.03;;;3.70;99.90;;;3.75;100.00;101418.78;5053576;28;20037;-73
2022/12/19 00:48:37;;;;;;;74.87;41.40;;;3.80;99.90;;;3.83;100.00;101421.63;5052062;28;20110;-72
2022/12/19 00:51:10;;;;;;;72.90;40.63;;;3.80;99.90;;;3.75;100.00;101376.91;5051792;28;20057;-73
2022/12/19 00:53:43;;;;;;;81.07;41.73;;;3.80;99.90;;;3.83;100.00;101398.09;5053564;28;20048;-73
2022/12/19 00:56:15;;;;;;;77.67;41.87;;;3.90;99.90;;;3.92;100.00;101388.78;5053510;28;20047;-73
2022/12/19 00:58:44;;;;;;;79.73;42.53;;;3.90;99.90;;;3.95;100.00;101399.31;5053532;28;20049;-73
2022/12/19 01:01:19;;;;;;;73.33;40.90;;;4.00;99.90;;;3.99;100.00;101390.72;5053218;28;20041;-73
2022/12/19 01:03:48;;;;;;;74.67;41.80;;;4.00;99.90;;;4.04;100.00;101376.06;5053091;28;20486;-74
2022/12/19 01:06:38;;;;;;;70.53;39.97;;;4.10;99.90;;;4.15;100.00;101368.53;5052575;28;20103;-73
2022/12/19 01:09:08;;;;;;;71.30;40.90;;;4.10;99.90;;;3.95;100.00;101360.06;5053420;28;20152;-73
2022/12/19 01:14:23;;;;;;;75.83;41.67;;;4.10;99.90;;;4.12;100.00;101355.34;5053559;28;20041;-73
2022/12/19 01:16:52;;;;;;;68.57;39.37;;;4.20;99.90;;;4.31;100.00;101362.91;5053270;28;20433;-74
2022/12/19 01:19:20;;;;;;;75.93;42.73;;;4.30;99.90;;;4.25;100.00;101353.13;5052218;28;20099;-73
2022/12/19 01:21:50;;;;;;;69.70;41.33;;;4.30;99.90;;;4.35;100.00;101389.22;5052048;28;20079;-73
2022/12/19 01:24:19;;;;;;;70.88;41.22;;;4.40;99.90;;;4.40;100.00;101365.75;5053268;28;20076;-73
2022/12/19 01:26:50;;;;;;;70.73;40.07;;;4.40;99.90;;;4.43;100.00;101348.41;5053528;28;20128;-73
2022/12/19 01:29:18;;;;;;;71.13;39.83;;;4.50;99.90;;;4.45;100.00;101346.72;5053277;28;20569;-73
2022/12/19 01:31:48;;;;;;;65.15;40.42;;;4.50;99.90;;;4.42;100.00;101346.63;5068981;28;20064;-74
2022/12/19 01:34:16;;;;;;;64.57;38.53;;;4.50;99.90;;;4.48;100.00;101346.81;5053910;28;20052;-74
2022/12/19 01:36:44;;;;;;;67.83;40.00;;;4.50;99.90;;;4.49;100.00;101345.94;5053302;28;20037;-73
2022/12/19 01:39:14;;;;;;;64.60;37.38;;;4.50;99.90;;;3.86;100.00;101218.53;5054243;28;20068;-73
2022/12/19 01:41:42;;;;;;;68.87;40.17;;;4.60;99.90;;;4.68;100.00;101338.59;5053952;28;20044;-72
2022/12/19 01:44:11;;;;;;;66.00;40.03;;;4.60;99.90;;;4.74;100.00;101349.25;5055574;28;20635;-73
2022/12/19 01:46:44;;;;;;;60.00;38.30;;;4.70;99.90;;;4.82;100.00;101321.53;5072149;28;20497;-74
2022/12/19 01:49:16;;;;;;;59.67;37.50;;;4.80;99.90;;;4.85;100.00;101332.06;5055445;28;20053;-73
2022/12/19 01:51:51;;;;;;;64.63;37.55;;;4.80;99.90;;;4.86;100.00;101336.47;5053437;28;20052;-74
2022/12/19 01:54:25;;;;;;;58.35;36.85;;;4.90;99.90;;;4.98;100.00;101326.28;5070795;28;20049;-74
2022/12/19 01:56:58;;;;;;;61.60;37.70;;;4.90;99.90;;;5.01;100.00;101315.88;5069270;28;20052;-74
2022/12/19 01:59:34;;;;;;;60.45;38.00;;;5.00;99.90;;;5.03;100.00;101320.31;5068578;28;20057;-74
2022/12/19 02:02:10;;;;;;;64.67;38.67;;;5.00;99.90;;;5.02;100.00;101323.78;5051745;28;20045;-74
2022/12/19 02:04:40;;;;;;;63.23;38.90;;;5.00;99.90;;;4.90;100.00;101301.59;5052942;28;20037;-74
2022/12/19 02:07:09;;;;;;;61.60;36.70;;;5.10;99.90;;;5.10;100.00;101318.72;5052937;28;20132;-74
2022/12/19 02:09:46;;;;;;;67.80;38.50;;;5.10;99.90;;;5.05;100.00;101310.75;5051854;28;20570;-73
2022/12/19 02:12:29;;;;;;;65.17;39.00;;;5.10;99.90;;;5.07;100.00;101305.56;5068282;28;20044;-73
2022/12/19 02:15:00;;;;;;;61.83;37.27;;;5.10;99.90;;;5.10;100.00;101292.50;5051511;28;20056;-74
2022/12/19 02:17:46;;;;;;;60.57;37.37;;;5.10;99.90;;;5.20;100.00;101281.41;5054480;28;20045;-73
2022/12/19 02:21:03;;;;;;;62.47;36.90;;;5.10;99.90;;;5.11;100.00;101266.31;5055036;28;20041;-74
2022/12/19 02:24:12;;;;;;;60.40;36.08;;;5.10;99.90;;;5.11;100.00;101262.84;5055183;28;20048;-74
2022/12/19 02:27:14;;;;;;;58.67;35.08;;;5.10;99.90;;;5.13;100.00;101264.63;5055103;28;20068;-74
2022/12/19 02:30:09;;;;;;;53.28;33.08;;;5.10;99.90;;;5.17;100.00;101271.72;5055995;28;20136;-74
2022/12/19 02:32:56;;;;;;;54.85;33.55;;;5.20;99.90;;;5.19;100.00;101267.41;5054834;28;20052;-74
2022/12/19 02:35:35;;;;;;;54.10;32.38;;;5.20;99.90;;;5.29;100.00;101260.63;5071554;28;20045;-74
2022/12/19 02:38:15;;;;;;;48.27;29.97;;;5.30;99.90;;;5.17;100.00;101228.88;5056370;28;20083;-74
2022/12/19 02:40:50;;;;;;;47.43;30.33;;;5.30;99.90;;;5.45;100.00;101237.44;5055007;28;20405;-74
2022/12/19 02:43:28;;;;;;;44.60;28.07;;;5.40;99.90;;;5.47;100.00;101266.31;5071310;28;20045;-75
2022/12/19 02:45:57;;;;;;;43.67;28.75;;;5.50;99.90;;;5.33;100.00;101220.50;5071550;28;20115;-75
2022/12/19 02:48:28;;;;;;;45.72;28.73;;;5.50;99.90;;;5.48;100.00;101236.59;5055811;28;20041;-74
2022/12/19 02:50:58;;;;;;;38.28;26.50;;;5.50;99.90;;;5.11;100.00;101166.72;5070909;28;20057;-74
2022/12/19 02:53:26;;;;;;;38.58;27.15;;;5.60;99.90;;;5.69;100.00;101247.53;5071117;28;20055;-74
2022/12/19 02:56:25;;;;;;;36.50;24.20;;;5.70;99.90;;;5.64;100.00;101225.56;5054648;28;20092;-74
2022/12/19 02:59:18;;;;;;;39.33;26.73;;;5.70;99.90;;;5.81;100.00;101233.78;5054081;28;20098;-73
2022/12/19 03:01:53;;;;;;;36.65;24.48;;;5.70;99.90;;;5.67;100.00;101219.50;5071154;28;20053;-74
2022/12/19 03:04:37;;;;;;;37.55;25.42;;;5.80;99.90;;;5.89;100.00;101230.50;5070852;28;20083;-74
2022/12/19 03:07:14;;;;;;;34.05;23.95;;;5.90;99.90;;;5.98;100.00;101235.94;5053918;28;20514;-74
2022/12/19 03:09:52;;;;;;;30.50;23.10;;;6.00;99.90;;;6.05;100.00;101224.72;5070493;28;20069;-74
2022/12/19 03:12:27;;;;;;;32.45;23.58;;;6.00;99.90;;;6.06;100.00;101221.22;5054087;28;20483;-74
2022/12/19 03:14:58;;;;;;;35.17;23.45;;;6.10;99.90;;;6.08;100.00;101211.63;5055029;28;20047;-73
2022/12/19 03:17:28;;;;;;;31.45;22.73;;;6.20;99.90;;;6.19;100.00;101215.34;5054951;28;20069;-73
2022/12/19 03:19:58;;;;;;;28.48;20.90;;;6.20;99.90;;;6.29;100.00;101226.91;5054983;28;20045;-73
2022/12/19 03:22:26;;;;;;;;;;;6.30;99.90;;;6.39;100.00;101221.84;5055375;28;20041;-73
2022/12/19 03:24:55;;;;;;;24.05;19.48;;;6.40;99.90;;;5.88;100.00;101133.38;5055062;28;19927;-73
2022/12/19 03:27:29;;;;;;;25.30;19.27;;;6.40;99.90;;;6.45;100.00;101215.81;5055209;28;20072;-74
2022/12/19 03:30:04;;;;;;;23.67;18.35;;;6.40;99.90;;;6.52;100.00;101243.09;5054226;28;20041;-74
2022/12/19 03:32:36;;;;;;;25.33;17.40;;;6.50;99.90;;;6.50;100.00;101205.41;5054725;28;20437;-74
2022/12/19 03:35:12;;;;;;;21.60;17.08;;;6.50;99.90;;;6.61;100.00;101240.63;5054657;28;20041;-74
2022/12/19 03:37:42;;;;;;;21.60;16.70;;;6.60;99.90;;;6.62;100.00;101198.59;5053655;28;20424;-74
2022/12/19 03:40:16;;;;;;;21.83;17.98;;;6.60;99.90;;;6.67;100.00;101199.56;5054553;28;20041;-73
2022/12/19 03:45:45;;;;;;;24.77;17.63;;;6.60;99.90;;;6.67;100.00;101198.66;5053401;28;20052;-73
2022/12/19 03:48:20;;;;;;;22.33;17.50;;;6.60;99.90;;;6.74;100.00;101205.78;5054451;28;20116;-73
2022/12/19 03:51:09;;;;;;;23.88;18.60;;;6.60;99.90;;;6.77;100.00;101208.47;5054414;28;20129;-73
2022/12/19 03:53:48;;;;;;;22.10;17.42;;;6.70;99.90;;;6.84;100.00;101213.84;5054386;28;20103;-73
2022/12/19 03:56:26;;;;;;;21.92;17.33;;;6.70;99.90;;;6.76;100.00;101201.44;5069919;28;20526;-73
2022/12/19 03:59:01;;;;;;;22.25;17.92;;;6.80;99.90;;;6.56;100.00;101173.97;5054240;28;20111;-73
2022/12/19 04:01:34;;;;;;;23.08;18.25;;;6.80;99.90;;;6.87;100.00;101197.25;5053142;28;20466;-73
2022/12/19 04:04:05;;;;;;;22.25;17.90;;;6.80;99.90;;;6.94;100.00;101209.63;5054347;28;20040;-74
2022/12/19 04:06:35;;;;;;;22.80;17.35;;;6.80;99.90;;;6.92;100.00;101198.19;5054649;28;20045;-73
2022/12/19 04:09:05;;;;;;;21.85;17.17;;;6.80;99.90;;;7.00;100.00;101204.47;5053079;28;20064;-74
2022/12/19 04:11:41;;;;;;;22.23;17.58;;;6.90;99.90;;;6.98;100.00;101207.09;5053941;28;20041;-74
2022/12/19 04:14:15;;;;;;;21.63;18.40;;;6.90;99.90;;;6.94;100.00;101209.63;5054114;28;20055;-74
2022/12/19 04:16:50;;;;;;;21.30;18.00;;;6.90;99.90;;;7.06;100.00;101209.81;5054139;28;20095;-74
2022/12/19 04:19:26;;;;;;;22.13;17.65;;;6.90;99.90;;;7.08;100.00;101181.81;5054038;28;20055;-73
2022/12/19 04:22:04;;;;;;;23.00;18.65;;;7.00;99.90;;;7.00;100.00;101194.84;5053817;28;20550;-74
2022/12/19 04:24:37;;;;;;;20.58;16.13;;;7.00;99.90;;;7.07;100.00;101207.22;5053699;28;20407;-74
2022/12/19 04:27:08;;;;;;;20.15;16.20;;;7.00;99.90;;;6.83;100.00;101171.78;5053990;28;20052;-74
2022/12/19 04:29:38;;;;;;;;;;;7.10;99.90;;;7.12;100.00;101183.63;5054147;28;20399;-74
2022/12/19 04:32:08;;;;;;;17.73;15.73;;;7.10;99.90;;;7.22;100.00;101204.78;5053529;28;20374;-73
2022/12/19 04:34:36;;;;;;;18.10;15.50;;;7.10;99.90;;;6.98;100.00;101145.72;5053610;28;20560;-73
2022/12/19 04:37:13;;;;;;;17.90;15.35;;;7.10;99.90;;;7.22;100.00;101191.66;5053568;28;20063;-74
2022/12/19 04:39:41;;;;;;;20.60;17.33;;;7.10;99.90;;;7.23;100.00;101193.44;5053583;28;20049;-74
2022/12/19 04:42:09;;;;;;;21.60;16.90;;;7.20;99.90;;;7.28;100.00;101209.25;5053420;28;20045;-73
2022/12/19 04:44:38;;;;;;;20.25;17.13;;;7.20;99.90;;;7.25;100.00;101175.94;5053241;28;20406;-74
2022/12/19 04:47:06;;;;;;;20.45;17.45;;;7.20;99.90;;;7.30;100.00;101197.91;5053287;28;20041;-74
2022/12/19 04:49:34;;;;;;;22.80;17.88;;;7.20;99.90;;;7.32;100.00;101186.53;5053432;28;20099;-74
2022/12/19 04:52:03;;;;;;;22.70;19.45;;;7.20;99.90;;;7.35;100.00;101187.47;5053192;28;20041;-74
2022/12/19 04:54:34;;;;;;;24.27;18.73;;;7.30;99.90;;;7.39;100.00;101180.47;5053187;28;20048;-75
2022/12/19 04:57:02;;;;;;;24.90;19.38;;;7.30;99.90;;;7.41;100.00;101174.38;5068929;28;20064;-75
2022/12/19 04:59:31;;;;;;;23.60;18.15;;;7.30;99.90;;;7.46;100.00;101196.38;5068784;28;20051;-74
2022/12/19 05:01:59;;;;;;;24.42;18.73;;;7.30;99.90;;;7.49;100.00;101171.84;5053354;28;20041;-74
2022/12/19 05:04:28;;;;;;;23.98;18.10;;;7.40;99.90;;;7.48;100.00;101173.59;5052956;28;20123;-74
2022/12/19 05:06:56;;;;;;;22.33;18.38;;;7.40;99.90;;;7.49;100.00;101163.94;5053169;28;20481;-74
2022/12/19 05:09:26;;;;;;;28.52;20.55;;;7.40;99.90;;;7.53;100.00;101161.34;5053218;28;20136;-74
2022/12/19 05:11:55;;;;;;;23.60;19.50;;;7.40;99.90;;;7.49;100.00;101159.56;5053478;28;20539;-75
2022/12/19 05:14:24;;;;;;;26.75;20.05;;;7.50;99.90;;;7.63;100.00;101163.25;5053256;28;20418;-74
2022/12/19 05:16:52;;;;;;;26.25;20.27;;;7.50;99.90;;;7.50;100.00;101148.16;5053410;28;20102;-74
2022/12/19 05:19:27;;;;;;;25.77;19.35;;;7.50;99.90;;;7.63;100.00;101171.13;5052955;28;20041;-74
2022/12/19 05:21:56;;;;;;;26.55;19.45;;;7.50;99.90;;;7.62;100.00;101161.50;5052879;28;20041;-74
2022/12/19 05:24:24;;;;;;;24.95;18.52;;;7.50;99.90;;;7.69;100.00;101162.44;5068506;28;20107;-74
2022/12/19 05:26:53;;;;;;;24.92;19.55;;;7.60;99.90;;;7.70;100.00;101165.09;5051869;28;20041;-74
2022/12/19 05:29:22;;;;;;;26.38;19.02;;;7.60;99.90;;;7.52;100.00;101149.06;5053343;28;20127;-75
2022/12/19 05:31:51;;;;;;;24.38;19.08;;;7.60;99.90;;;7.74;100.00;101172.16;5052843;28;20556;-74
2022/12/19 05:34:19;;;;;;;25.27;18.92;;;7.60;99.90;;;7.81;100.00;101189.81;5053056;28;20091;-74
2022/12/19 05:36:48;;;;;;;22.45;17.80;;;7.60;99.90;;;7.85;100.00;101160.00;5052730;28;20065;-74
2022/12/19 05:39:16;;;;;;;23.77;18.60;;;7.70;99.90;;;7.85;100.00;101173.19;5052723;28;20037;-75
2022/12/19 05:41:45;;;;;;;25.35;19.23;;;7.70;99.90;;;7.73;100.00;101141.44;5052681;28;20044;-75
2022/12/19 05:44:17;;;;;;;23.67;18.17;;;7.80;99.90;;;7.90;100.00;101168.84;5052850;28;20091;-74
2022/12/19 05:46:47;;;;;;;27.48;18.77;;;7.80;99.90;;;7.88;100.00;101162.66;5051618;28;20037;-74
2022/12/19 05:49:15;;;;;;;28.23;18.92;;;7.80;99.90;;;7.89;100.00;101181.97;5052713;28;20049;-75
2022/12/19 05:51:47;;;;;;;24.92;18.77;;;7.80;99.90;;;7.69;100.00;101129.09;5053445;28;20498;-75
2022/12/19 05:54:15;;;;;;;25.58;18.90;;;7.80;99.90;;;7.96;100.00;101162.75;5056870;28;20441;-75
2022/12/19 05:56:43;;;;;;;24.38;18.35;;;7.80;99.90;;;7.97;100.00;101170.69;5056713;28;20124;-75
2022/12/19 05:59:12;;;;;;;26.13;19.20;;;7.80;99.90;;;7.98;100.00;101174.19;5056768;28;20053;-75
2022/12/19 06:01:40;;;;;;;25.17;18.52;;;7.90;99.90;;;7.88;100.00;101136.31;5056654;28;20052;-75
2022/12/19 06:04:10;;;;;;;24.05;18.60;;;7.90;99.90;;;7.86;100.00;101139.81;5055317;28;20144;-75
2022/12/19 06:06:38;;;;;;;29.30;19.47;;;7.90;99.90;;;8.04;100.00;101161.06;5056362;28;20037;-76
2022/12/19 06:09:07;;;;;;;23.08;18.17;;;8.00;99.90;;;8.12;100.00;101178.75;5056550;28;20045;-75
2022/12/19 06:11:35;;;;;;;24.95;18.60;;;8.00;99.90;;;7.67;100.00;101095.72;5056258;28;20044;-75
2022/12/19 06:14:03;;;;;;;23.73;17.65;;;8.00;99.90;;;8.08;100.00;101179.56;5056425;28;20128;-75
2022/12/19 06:16:31;;;;;;;24.05;17.83;;;7.90;99.90;;;8.06;100.00;101156.72;5056139;28;20048;-75
2022/12/19 06:19:00;;;;;;;26.00;19.00;;;8.00;99.90;;;8.14;100.00;101148.03;5055996;28;20413;-75
2022/12/19 06:21:30;;;;;;;25.50;18.08;;;8.00;99.90;;;8.16;100.00;101145.41;5056293;28;20037;-76
2022/12/19 06:23:58;;;;;;;24.80;18.30;;;8.10;99.90;;;8.21;100.00;101160.38;5056093;28;20091;-76
2022/12/19 06:26:26;;;;;;;23.80;18.42;;;8.10;99.90;;;8.27;100.00;101177.13;5054867;28;20037;-75
2022/12/19 06:28:56;;;;;;;25.40;18.23;;;8.10;99.90;;;8.10;100.00;101151.50;5056298;28;20037;-76
2022/12/19 06:31:25;;;;;;;24.35;17.52;;;8.10;99.90;;;8.27;100.00;101167.50;5056044;28;20120;-76
2022/12/19 06:33:55;;;;;;;20.95;16.02;;;8.10;99.90;;;8.26;100.00;101165.75;5057093;28;20045;-76
2022/12/19 06:36:26;;;;;;;29.13;17.67;;;8.10;99.90;;;7.75;100.00;101060.72;5056309;28;20387;-75
2022/12/19 06:38:57;;;;;;;22.45;17.15;;;8.20;99.90;;;8.26;100.00;101151.66;5056471;28;20045;-76
2022/12/19 06:44:14;;;;;;;19.92;15.45;;;8.20;99.90;;;8.35;100.00;101164.94;5055985;28;20548;-76
2022/12/19 06:46:44;;;;;;;22.88;16.10;;;8.20;99.90;;;8.29;100.00;101163.13;5055976;28;20091;-76
2022/12/19 06:49:12;;;;;;;20.23;15.52;;;8.20;99.90;;;8.35;100.00;101168.44;5055424;28;20088;-76
2022/12/19 06:51:41;;;;;;;20.33;14.63;;;8.20;99.90;;;8.36;100.00;101161.44;5055861;28;20129;-76
2022/12/19 06:54:12;;;;;;;23.83;15.30;;;8.20;99.90;;;8.43;100.00;101181.69;5055535;28;20525;-76
2022/12/19 06:56:42;;;;;;;19.63;14.55;;;8.30;99.90;;;8.43;100.00;101171.16;5056060;28;20064;-75
2022/12/19 06:59:14;;;;;;;19.95;14.93;;;8.30;99.90;;;8.47;100.00;101178.22;5055608;28;20056;-75
2022/12/19 07:01:57;;;;;;;20.77;14.95;;;8.30;99.90;;;8.40;100.00;101187.81;5055822;28;20041;-75
2022/12/19 07:04:31;;;;;;;19.35;14.57;;;8.30;99.90;;;8.39;100.00;101153.53;5053923;28;20098;-75
2022/12/19 07:07:00;;;;;;;20.17;14.43;;;8.30;99.90;;;8.31;100.00;101145.56;5055469;28;20041;-76
2022/12/19 07:09:32;;;;;;;20.27;14.07;;;8.30;99.90;;;7.90;100.00;101083.66;5055213;28;20069;-76
2022/12/19 07:12:01;;;;;;;17.17;13.60;;;8.40;99.90;;;8.53;100.00;101196.72;5055149;28;20874;-76
2022/12/19 07:14:30;;;;;;;16.70;13.80;;;8.40;99.90;;;8.55;100.00;101189.72;5055330;28;20042;-75
2022/12/19 07:17:00;;;;;;;20.30;14.18;;;8.40;99.90;;;8.55;100.00;101168.63;5070830;28;20056;-76
2022/12/19 07:19:30;;;;;;;21.40;14.55;;;8.40;99.90;;;8.51;100.00;101180.00;5055429;28;20067;-75
2022/12/19 07:22:00;;;;;;;20.77;14.27;;;8.40;99.90;;;8.62;100.00;101199.44;5055315;28;20399;-76
2022/12/19 07:24:30;;;;;;;16.50;12.82;;;8.50;99.90;;;8.62;100.00;101200.34;5054881;28;20098;-76
2022/12/19 07:26:59;;;;;;;20.27;13.43;;;8.50;99.90;;;8.68;100.00;101204.78;5055043;28;20065;-76
2022/12/19 07:29:27;;;;;;;16.63;13.27;;;8.50;99.90;;;8.71;100.00;101216.22;5055052;28;20390;-76
2022/12/19 07:31:56;;;;;;;15.88;13.07;;;8.50;99.90;;;8.75;100.00;101204.84;5070413;28;20072;-76
2022/12/19 07:34:24;;;;;;;19.45;13.63;;;8.60;99.90;;;8.69;100.00;101211.81;5054941;28;20041;-76
2022/12/19 07:36:52;;;;;;;16.27;13.45;;;8.60;99.90;;;8.76;100.00;101211.88;5054809;28;20048;-76
2022/12/19 07:39:21;;;;;;;18.98;13.00;;;8.60;99.90;;;8.57;100.00;101188.88;5053524;28;20693;-76
2022/12/19 07:41:51;;;;;;;19.75;13.00;;;8.60;99.90;;;8.72;100.00;101231.19;5070156;28;20045;-72
2022/12/19 07:44:30;;;;;;;18.25;12.38;;;8.60;99.90;;;8.72;100.00;101209.19;5070225;28;20069;-77
2022/12/19 07:46:58;;;;;;;19.42;13.73;;;8.60;99.90;;;8.06;100.00;101126.00;5054691;28;20127;-77
2022/12/19 07:49:26;;;;;;;17.13;13.20;;;8.60;99.90;;;8.79;100.00;101224.19;5054707;28;20056;-76
2022/12/19 07:51:55;;;;;;;17.25;13.57;;;8.60;99.90;;;8.81;100.00;101218.06;5054338;28;20068;-77
2022/12/19 07:54:23;;;;;;;17.90;13.02;;;8.70;99.90;;;8.80;100.00;101225.97;5054579;28;20122;-77
2022/12/19 07:56:53;;;;;;;18.40;12.80;;;8.70;99.90;;;8.72;100.00;101207.47;5069933;28;20118;-78
2022/12/19 07:59:21;;;;;;;15.67;12.77;;;8.70;99.90;;;8.82;100.00;101237.44;5054208;28;20051;-78
2022/12/19 08:01:57;;;;;;;14.82;12.50;;;8.60;99.90;;;8.85;100.00;101232.16;5054252;28;20041;-74
2022/12/19 08:04:26;;;;;;;16.23;12.25;;;8.70;99.90;;;8.87;100.00;101239.22;5054349;28;20124;-75
2022/12/19 08:06:54;;;;;;;17.02;13.35;;;8.70;99.90;;;8.87;100.00;101227.78;5054234;28;20045;-73
2022/12/19 08:09:26;;;;;;;15.77;12.32;;;8.70;99.90;;;8.87;100.00;101233.06;5054294;28;20040;-74
2022/12/19 08:11:56;;;;;;;16.70;13.13;;;8.70;99.90;;;8.89;100.00;101248.03;5053017;28;20045;-73
2022/12/19 08:14:24;;;;;;;16.98;12.80;;;8.80;99.90;;;8.89;100.00;101239.22;5054160;28;20044;-73
2022/12/19 08:16:53;;;;;;;20.50;12.48;;;8.80;99.90;;;8.91;100.00;101248.03;5054090;28;20045;-73
2022/12/19 08:19:41;;;;;;;19.60;12.88;;;8.80;99.90;;;8.84;100.00;101244.50;5053841;28;20064;-70
2022/12/19 08:22:10;;;;;;;15.75;12.88;;;8.70;99.90;;;8.77;100.00;101236.47;5052736;28;20467;-71
2022/12/19 08:24:38;;;;;;;16.42;12.73;;;8.70;99.90;;;8.85;100.00;101254.16;5053944;28;20041;-75
2022/12/19 08:27:08;;;;;;;18.88;12.80;;;8.70;99.90;;;8.84;100.00;101247.13;5053997;28;20459;-71
2022/12/19 08:29:36;;;;;;;18.50;12.77;;;8.70;99.90;;;8.87;100.00;101243.59;5053686;28;20049;-75
2022/12/19 08:32:05;;;;;;;15.63;12.65;;;8.80;99.90;;;8.91;100.00;101238.38;5054115;28;20537;-77
2022/12/19 08:34:33;;;;;;;16.15;12.95;;;8.80;99.90;;;8.85;100.00;101227.78;5053551;28;20098;-77
2022/12/19 08:37:01;;;;;;;17.02;12.85;;;8.80;99.90;;;8.99;100.00;101234.06;5053926;28;20141;-76
2022/12/19 08:39:30;;;;;;;17.08;13.55;;;8.90;99.90;;;8.97;100.00;101240.19;5053499;28;20502;-77
2022/12/19 08:41:58;;;;;;;19.92;12.75;;;8.80;99.90;;;8.95;100.00;101252.47;5053413;28;20037;-79
2022/12/19 08:44:28;;;;;;;15.55;13.85;;;8.80;99.90;;;8.91;100.00;101251.56;5052343;28;20410;-77
2022/12/19 08:46:56;;;;;;;16.13;12.73;;;8.90;99.90;;;8.94;100.00;101261.28;5053281;28;20048;-73
2022/12/19 08:49:25;;;;;;;15.23;12.15;;;8.80;99.90;;;8.97;100.00;101267.44;5053441;28;20049;-74
2022/12/19 08:51:53;;;;;;;14.75;11.50;;;8.90;99.90;;;8.97;100.00;101256.00;5053237;28;20051;-76
2022/12/19 08:54:22;;;;;;;17.20;11.63;;;8.80;99.90;;;8.60;100.00;101182.72;5052412;28;20055;-79
2022/12/19 08:56:50;;;;;;;18.85;12.65;;;8.80;99.90;;;9.01;100.00;101274.53;5053195;28;20123;-77
2022/12/19 08:59:19;;;;;;;15.75;12.00;;;8.90;99.90;;;9.03;100.00;101267.50;5053174;28;20397;-81
2022/12/19 09:02:00;;;;;;;15.65;11.95;;;8.90;99.90;;;9.02;100.00;101284.19;5052155;28;20124;-80
2022/12/19 09:04:29;;;;;;;15.75;12.40;;;8.90;99.90;;;9.01;100.00;101241.97;5053153;28;20052;-81
2022/12/19 09:07:18;;;;;;;15.25;11.55;;;8.90;99.90;;;9.12;100.00;101255.28;5053049;28;20045;-78
2022/12/19 09:09:46;;;;;;;15.30;11.45;;;9.00;99.90;;;9.06;100.00;101241.13;5053135;28;20041;-79
2022/12/19 09:12:16;;;;;;;14.48;12.07;;;9.00;99.90;;;9.16;100.00;101268.47;5053332;28;20228;-81
2022/12/19 09:14:44;;;;;;;16.38;12.30;;;9.00;99.90;;;9.14;100.00;101274.63;5053117;28;20033;-80
2022/12/19 09:17:14;;;;;;;14.52;10.88;;;9.00;99.90;;;9.20;100.00;101270.25;5053355;28;20132;-78
2022/12/19 09:19:43;;;;;;;17.08;11.82;;;9.00;99.90;;;9.15;100.00;101255.28;5053571;28;20045;-77
2022/12/19 09:22:16;;;;;;;14.02;11.45;;;9.10;99.90;;;9.15;100.00;101271.09;5052918;28;20150;-79
2022/12/19 09:24:47;;;;;;;13.32;11.57;;;9.00;99.90;;;9.18;100.00;101265.84;5052174;28;20451;-77
2022/12/19 09:27:16;;;;;;;15.20;12.40;;;9.10;99.90;;;9.24;100.00;101261.50;5070292;28;20140;-78
2022/12/19 09:29:44;;;;;;;16.48;11.60;;;9.10;99.90;;;9.20;100.00;101279.94;5056894;28;20048;-77
2022/12/19 09:32:14;;;;;;;13.77;11.52;;;9.10;99.90;;;9.01;100.00;101256.06;5057479;28;20098;-80
2022/12/19 09:34:42;;;;;;;14.40;11.00;;;9.10;99.90;;;8.59;100.00;101183.59;5056969;28;20095;-79
2022/12/19 09:37:12;;;;;;;16.92;12.20;;;9.00;99.90;;;9.04;100.00;101258.72;5056802;28;20139;-78
2022/12/19 09:39:45;;;;;;;15.35;12.10;;;9.10;99.90;;;9.10;100.00;101242.94;5057450;28;20041;-78
2022/12/19 09:42:28;;;;;;;15.45;11.77;;;9.10;99.90;;;9.22;100.00;101288.75;5057267;28;20479;-84
2022/12/19 09:45:16;;;;;;;16.25;12.07;;;9.10;99.90;;;9.26;100.00;101286.16;5056836;28;20114;-79
2022/12/19 09:48:02;;;;;;;14.73;12.10;;;9.20;99.90;;;9.30;100.00;101268.56;5056944;28;20044;-76
2022/12/19 09:50:46;;;;;;;13.85;11.77;;;9.20;99.90;;;9.28;100.00;101279.13;5056983;28;20067;-70
2022/12/19 09:53:21;;;;;;;12.90;11.48;;;9.20;99.90;;;9.28;100.00;101294.97;5056661;28;20116;-76
2022/12/19 09:55:53;;;;;;;17.13;11.07;;;9.20;99.90;;;9.30;100.00;101273.84;5056909;28;20048;-75
2022/12/19 09:58:36;;;;;;;17.50;12.13;;;9.20;99.90;;;9.35;100.00;101258.94;5056876;28;20060;-76
2022/12/19 10:01:15;;;;;;;13.68;10.25;;;9.20;99.90;;;9.31;100.00;101271.22;5056486;28;20041;-77
2022/12/19 10:03:53;;;;;;;15.63;11.63;;;9.20;99.90;;;9.33;100.00;101297.66;5056394;28;20044;-75
2022/12/19 10:06:23;;;;;;;13.25;10.70;;;9.20;99.90;;;9.25;100.00;101284.41;5056704;28;20151;-76
2022/12/19 10:09:16;;;;;;;13.00;10.50;;;9.10;99.90;;;9.33;100.00;101290.59;5056293;28;20120;-76
2022/12/19 10:12:25;;;;;;;15.02;10.55;;;9.20;99.90;;;9.43;100.00;101300.34;5056514;28;20791;-75
2022/12/19 10:15:21;;;;;;;12.88;10.38;;;9.20;99.90;;;9.42;100.00;101266.91;5056362;28;20045;-75
2022/12/19 10:18:15;;;;;;;14.10;10.05;;;9.30;99.90;;;9.41;100.00;101259.84;5056176;28;20051;-76
2022/12/19 10:20:50;;;;;;;12.02;10.48;;;9.30;99.90;;;9.38;100.00;101295.91;5055994;28;20049;-77
2022/12/19 10:23:48;;;;;;;14.80;10.85;;;9.30;99.90;;;9.43;100.00;101288.91;5056627;28;20044;-74
2022/12/19 10:26:20;;;;;;;13.98;10.20;;;9.30;99.90;;;9.43;100.00;101292.44;5056013;28;20045;-75
2022/12/19 10:29:28;;;;;;;13.18;9.80;;;9.30;99.90;;;9.53;100.00;101283.69;5056235;28;20094;-75
2022/12/19 10:32:04;;;;;;;11.18;9.00;;;9.40;99.90;;;9.55;100.00;101287.25;5055923;28;20411;-74
2022/12/19 10:34:36;;;;;;;13.15;10.10;;;9.40;99.90;;;9.59;100.00;101286.38;5054918;28;20052;-75
2022/12/19 10:37:21;;;;;;;13.40;9.77;;;9.50;99.90;;;9.39;100.00;101232.56;5056244;28;20509;-75
2022/12/19 10:40:10;;;;;;;12.07;9.82;;;9.50;99.90;;;9.59;100.00;101244.13;5056293;28;20123;-75